Time;durP1;ratioP1;P1;durP2;ratioP2;P2;SDS_P1;SDS_P2;PMS_P1;PMS_P2;Temp;Humidity;BMP_temperature;BMP_pressure;BME280_temperature;BME280_humidity;BME280_pressure;Samples;Min_cycle;Max_cycle;Signal;HPM_P1;HPM_P2
2022/12/10 00:01:52;;;;;;;11.97;7.78;;;10.90;94.40;;;;;;1953252;73;21002;-58
2022/12/10 00:04:21;;;;;;;14.23;8.30;;;10.90;94.40;;;;;;1953149;73;21064;-58
2022/12/10 00:06:51;;;;;;;14.00;8.80;;;10.90;94.40;;;;;;1953117;73;21002;-58
2022/12/10 00:09:21;;;;;;;12.82;8.45;;;10.80;94.40;;;;;;1953290;73;20994;-58
2022/12/10 00:11:50;;;;;;;14.55;7.65;;;10.80;94.40;;;;;;1953160;73;21002;-58
2022/12/10 00:14:20;;;;;;;13.85;8.05;;;10.80;94.40;;;;;;1953223;73;21002;-58
2022/12/10 00:16:49;;;;;;;12.18;8.03;;;10.80;94.40;;;;;;1953164;73;21084;-58
2022/12/10 00:19:18;;;;;;;13.80;8.43;;;10.80;94.40;;;;;;1953145;73;20974;-58
2022/12/10 00:21:47;;;;;;;13.68;7.90;;;10.70;94.40;;;;;;1953135;73;20999;-58
2022/12/10 00:24:17;;;;;;;14.20;7.87;;;10.70;94.50;;;;;;1953071;72;21026;-58
2022/12/10 00:26:46;;;;;;;13.48;8.03;;;10.70;94.50;;;;;;1953108;72;20990;-58
2022/12/10 00:29:15;;;;;;;12.55;7.58;;;10.70;94.60;;;;;;1953136;73;21405;-58
2022/12/10 00:31:44;;;;;;;12.60;8.73;;;10.60;94.50;;;;;;1953061;73;21108;-58
2022/12/10 00:34:14;;;;;;;15.38;9.38;;;10.60;94.60;;;;;;1953230;73;21034;-58
2022/12/10 00:36:49;;;;;;;12.53;8.98;;;10.60;94.60;;;;;;1955140;73;20998;-58
2022/12/10 00:39:20;;;;;;;11.95;8.53;;;10.50;94.60;;;;;;1969941;73;21072;-58
2022/12/10 00:41:49;;;;;;;12.78;8.23;;;10.50;94.60;;;;;;1969757;73;21095;-58
2022/12/10 00:44:19;;;;;;;15.78;8.90;;;10.50;94.60;;;;;;1969912;73;21095;-58
2022/12/10 00:46:48;;;;;;;14.03;8.53;;;10.40;94.70;;;;;;1969874;73;20997;-58
2022/12/10 00:49:17;;;;;;;14.28;10.13;;;10.40;94.70;;;;;;1969790;73;20998;-58
2022/12/10 00:51:46;;;;;;;16.80;9.93;;;10.40;94.70;;;;;;1969687;73;20993;-58
2022/12/10 00:54:15;;;;;;;17.75;9.03;;;10.30;94.60;;;;;;1969788;73;20986;-58
2022/12/10 00:56:44;;;;;;;16.73;8.90;;;10.20;94.60;;;;;;1969739;73;21444;-58
2022/12/10 00:59:13;;;;;;;12.00;8.58;;;10.10;94.60;;;;;;1969894;73;21025;-58
2022/12/10 01:01:43;;;;;;;13.58;8.28;;;10.10;94.80;;;;;;1969711;73;21067;-58
2022/12/10 01:04:15;;;;;;;12.73;8.40;;;10.00;94.90;;;;;;1969634;73;21064;-58
2022/12/10 01:06:46;;;;;;;13.85;8.85;;;10.10;95.00;;;;;;1969606;73;21067;-58
2022/12/10 01:09:18;;;;;;;14.38;8.15;;;10.10;95.10;;;;;;1969685;72;21063;-58
2022/12/10 01:11:48;;;;;;;16.73;9.50;;;10.10;95.10;;;;;;1969627;73;21073;-58
2022/12/10 01:14:23;;;;;;;16.05;9.33;;;10.10;95.10;;;;;;1969560;72;21009;-58
2022/12/10 01:16:53;;;;;;;;;;;10.10;95.00;;;;;;1972655;73;21002;-58
2022/12/10 01:19:22;;;;;;;18.92;10.03;;;10.10;95.00;;;;;;1969660;73;20098;-58
2022/12/10 01:21:53;;;;;;;14.38;8.25;;;10.00;95.00;;;;;;1969633;73;21029;-58
2022/12/10 01:24:24;;;;;;;14.68;8.73;;;10.00;95.10;;;;;;1969550;72;21009;-58
2022/12/10 01:26:54;;;;;;;15.45;8.68;;;10.00;95.10;;;;;;1969530;73;21083;-58
2022/12/10 01:29:24;;;;;;;16.40;10.50;;;10.00;95.20;;;;;;1969622;73;20997;-58
2022/12/10 01:31:55;;;;;;;15.03;9.55;;;10.00;95.20;;;;;;1969702;73;20990;-58
2022/12/10 01:34:24;;;;;;;13.35;9.00;;;10.00;95.10;;;;;;1969726;73;21068;-58
2022/12/10 01:36:56;;;;;;;16.32;9.43;;;10.00;95.30;;;;;;1967730;72;21005;-58
2022/12/10 01:39:25;;;;;;;17.73;9.68;;;9.90;95.10;;;;;;1953669;73;21030;-58
2022/12/10 01:41:56;;;;;;;15.15;8.13;;;9.90;95.10;;;;;;1953264;73;21003;-58
2022/12/10 01:44:28;;;;;;;13.25;9.03;;;9.90;95.30;;;;;;1953199;72;21003;-58
2022/12/10 01:47:00;;;;;;;13.85;8.28;;;10.00;95.40;;;;;;1953220;73;21079;-58
2022/12/10 01:49:38;;;;;;;16.37;9.18;;;10.00;95.30;;;;;;1953224;73;21127;-58
2022/12/10 01:52:09;;;;;;;12.37;7.60;;;10.10;95.30;;;;;;1953133;73;21549;-58
2022/12/10 01:54:41;;;;;;;17.20;8.38;;;10.10;95.40;;;;;;1953165;73;20986;-58
2022/12/10 01:57:18;;;;;;;12.93;8.00;;;10.20;95.30;;;;;;1953280;73;21420;-58
2022/12/10 01:59:49;;;;;;;14.03;8.35;;;10.30;95.20;;;;;;1953199;73;21064;-58
2022/12/10 02:02:30;;;;;;;13.35;9.23;;;10.30;95.20;;;;;;1953145;73;21026;-58
2022/12/10 02:05:02;;;;;;;13.15;8.40;;;10.30;95.20;;;;;;1952964;72;21525;-58
2022/12/10 02:07:55;;;;;;;15.83;9.38;;;10.30;95.10;;;;;;1953225;72;21103;-58
2022/12/10 02:10:39;;;;;;;14.07;8.43;;;10.20;95.10;;;;;;1953390;73;21096;-58
2022/12/10 02:13:11;;;;;;;13.83;8.25;;;10.20;95.20;;;;;;1953109;73;21030;-58
2022/12/10 02:15:55;;;;;;;14.50;8.78;;;10.30;95.30;;;;;;1953235;73;21072;-57
2022/12/10 02:18:30;;;;;;;16.07;9.48;;;10.30;95.20;;;;;;1952931;72;21468;-58
2022/12/10 02:21:02;;;;;;;15.13;8.88;;;10.30;95.20;;;;;;1945684;72;20994;-58
2022/12/10 02:23:34;;;;;;;12.73;8.53;;;10.30;95.20;;;;;;1953276;73;20994;-58
2022/12/10 02:26:26;;;;;;;13.05;8.30;;;10.30;95.20;;;;;;1952932;72;21068;-58
2022/12/10 02:29:16;;;;;;;17.30;9.10;;;10.30;95.20;;;;;;1953177;73;20970;-58
2022/12/10 02:31:49;;;;;;;12.35;7.55;;;10.30;95.20;;;;;;1953165;73;20974;-58
2022/12/10 02:34:20;;;;;;;17.42;8.43;;;10.30;95.10;;;;;;1953267;73;21030;-58
2022/12/10 02:36:51;;;;;;;13.58;8.03;;;10.30;95.20;;;;;;1953252;73;21018;-58
2022/12/10 02:39:24;;;;;;;14.90;7.85;;;10.30;95.10;;;;;;1964931;73;21583;-58
2022/12/10 02:41:57;;;;;;;17.98;8.50;;;10.30;95.10;;;;;;1969844;72;21125;-58
2022/12/10 02:44:29;;;;;;;15.60;8.05;;;10.30;95.10;;;;;;1969829;73;21010;-58
2022/12/10 02:47:00;;;;;;;13.18;7.10;;;10.30;95.10;;;;;;1969957;73;20990;-58
2022/12/10 02:49:31;;;;;;;7.78;5.72;;;10.30;95.20;;;;;;1969266;72;21058;-58
2022/12/10 02:52:02;;;;;;;12.00;7.17;;;10.30;95.20;;;;;;1969830;72;21009;-58
2022/12/10 02:54:43;;;;;;;13.93;7.15;;;10.30;95.20;;;;;;1969511;72;21063;-58
2022/12/10 02:57:38;;;;;;;17.35;6.47;;;10.30;95.20;;;;;;1969580;72;21022;-58
2022/12/10 03:00:20;;;;;;;10.65;5.80;;;10.30;95.10;;;;;;1950944;73;20986;-58
2022/12/10 03:03:11;;;;;;;12.68;7.40;;;10.40;95.10;;;;;;1969463;72;21062;-57
2022/12/10 03:05:49;;;;;;;13.85;6.80;;;10.50;95.10;;;;;;1969821;73;21421;-58
2022/12/10 03:08:30;;;;;;;12.80;6.83;;;10.60;95.00;;;;;;1969847;73;21037;-58
2022/12/10 03:11:10;;;;;;;13.88;8.23;;;10.60;94.90;;;;;;1969417;72;21103;-58
2022/12/10 03:13:59;;;;;;;13.40;7.20;;;10.60;94.90;;;;;;1969789;73;21006;-58
2022/12/10 03:16:31;;;;;;;14.45;6.03;;;10.60;94.80;;;;;;1969911;72;21033;-58
2022/12/10 03:19:02;;;;;;;12.28;7.40;;;10.50;94.80;;;;;;1969777;72;21475;-58
2022/12/10 03:21:33;;;;;;;13.10;8.00;;;10.50;95.00;;;;;;1969902;73;21003;-58
2022/12/10 03:24:04;;;;;;;13.68;8.10;;;10.40;94.80;;;;;;1968955;72;21054;-58
2022/12/10 03:26:34;;;;;;;12.95;8.93;;;10.40;94.80;;;;;;1969858;73;21086;-58
2022/12/10 03:29:05;;;;;;;12.82;7.95;;;10.40;94.80;;;;;;1969827;73;21088;-58
2022/12/10 03:31:36;;;;;;;11.00;7.22;;;10.30;94.80;;;;;;1969808;73;21030;-58
2022/12/10 03:34:06;;;;;;;12.70;7.45;;;10.30;94.90;;;;;;1969747;72;21009;-59
2022/12/10 03:36:35;;;;;;;12.82;7.65;;;10.30;94.90;;;;;;1969787;73;21034;-58
2022/12/10 03:39:05;;;;;;;14.20;7.58;;;10.30;94.90;;;;;;1963289;73;21116;-58
2022/12/10 03:41:35;;;;;;;14.53;8.40;;;10.20;94.90;;;;;;1953130;73;21026;-58
2022/12/10 03:44:04;;;;;;;16.12;9.58;;;10.20;94.90;;;;;;1953250;73;21002;-58
2022/12/10 03:46:34;;;;;;;11.45;7.20;;;10.20;94.90;;;;;;1953236;72;20998;-58
2022/12/10 03:49:04;;;;;;;13.50;8.93;;;10.20;94.90;;;;;;1953161;73;21072;-58
2022/12/10 03:51:33;;;;;;;15.08;8.40;;;10.20;95.00;;;;;;1953354;73;20967;-58
2022/12/10 03:54:02;;;;;;;13.22;8.10;;;10.20;94.90;;;;;;1953219;73;20998;-58
2022/12/10 03:56:32;;;;;;;11.00;7.95;;;10.10;94.80;;;;;;1953315;73;21080;-59
2022/12/10 03:59:01;;;;;;;14.93;7.45;;;10.10;94.90;;;;;;1953037;73;21077;-58
2022/12/10 04:01:30;;;;;;;13.95;7.62;;;10.10;95.00;;;;;;1953110;73;21072;-58
2022/12/10 04:03:59;;;;;;;14.20;8.30;;;10.10;95.00;;;;;;1953119;73;20998;-58
2022/12/10 04:06:29;;;;;;;14.28;8.38;;;10.00;95.10;;;;;;1953228;73;20990;-58
2022/12/10 04:08:58;;;;;;;18.87;9.58;;;10.00;95.00;;;;;;1953227;73;21077;-58
2022/12/10 04:11:28;;;;;;;18.00;8.70;;;10.00;94.80;;;;;;1953225;73;21301;-58
2022/12/10 04:16:45;;;;;;;14.75;8.85;;;9.90;95.10;;;;;;1953097;73;21026;-59
2022/12/10 04:19:17;;;;;;;16.15;9.45;;;9.90;95.20;;;;;;1953109;73;20974;-58
2022/12/10 04:27:28;;;;;;;22.07;11.30;;;9.80;95.10;;;;;;1953119;73;21096;-58
2022/12/10 04:29:59;;;;;;;17.52;9.85;;;9.80;95.20;;;;;;1952633;73;21082;-58
2022/12/10 04:32:30;;;;;;;28.15;14.68;;;9.70;95.20;;;;;;1953165;73;21066;-58
2022/12/10 04:34:59;;;;;;;29.25;14.15;;;9.70;95.30;;;;;;1953067;73;21014;-58
2022/12/10 04:37:29;;;;;;;23.67;13.15;;;9.70;95.30;;;;;;1953089;73;21072;-58
2022/12/10 04:39:59;;;;;;;23.45;12.73;;;9.70;95.30;;;;;;1961275;73;21073;-58
2022/12/10 04:42:28;;;;;;;27.45;12.80;;;9.60;95.30;;;;;;1969737;73;21534;-58
2022/12/10 04:44:57;;;;;;;25.95;13.50;;;9.60;95.30;;;;;;1969845;73;20998;-58
2022/12/10 04:47:27;;;;;;;25.35;11.80;;;9.60;95.30;;;;;;1969753;73;21002;-58
2022/12/10 04:49:56;;;;;;;24.12;12.28;;;9.50;95.20;;;;;;1969732;73;20993;-58
2022/12/10 04:52:25;;;;;;;21.10;12.40;;;9.50;95.30;;;;;;1969756;73;20994;-58
2022/12/10 04:54:54;;;;;;;16.32;10.35;;;9.40;95.30;;;;;;1969793;73;20998;-58
2022/12/10 04:57:23;;;;;;;24.63;12.45;;;9.40;95.30;;;;;;1969731;73;21416;-58
2022/12/10 04:59:52;;;;;;;22.82;10.60;;;9.30;95.40;;;;;;1969863;73;21025;-58
2022/12/10 05:02:22;;;;;;;17.05;9.90;;;9.30;95.30;;;;;;1969829;73;21006;-59
2022/12/10 05:04:51;;;;;;;18.27;11.20;;;9.30;95.30;;;;;;1969882;73;21053;-58
2022/12/10 05:07:20;;;;;;;22.42;10.58;;;9.30;95.40;;;;;;1969824;73;21091;-57
2022/12/10 05:09:49;;;;;;;26.37;12.90;;;9.20;95.30;;;;;;1969866;73;21494;-58
2022/12/10 05:12:37;;;;;;;24.57;12.33;;;9.20;95.50;;;;;;1969712;73;21543;-58
2022/12/10 05:15:08;;;;;;;28.27;12.95;;;9.20;95.20;;;;;;1899325;75;21053;-58
2022/12/10 05:17:38;;;;;;;21.17;12.45;;;9.20;95.40;;;;;;1934400;74;21001;-58
2022/12/10 05:20:08;;;;;;;27.40;12.18;;;9.20;95.50;;;;;;1894092;75;21025;-58
2022/12/10 05:25:24;;;;;;;27.17;13.83;;;9.20;95.50;;;;;;1894110;76;21099;-58
2022/12/10 05:27:53;;;;;;;37.73;19.35;;;9.20;95.50;;;;;;1934304;74;21103;-58
2022/12/10 05:30:23;;;;;;;23.55;12.18;;;9.30;95.50;;;;;;1894071;76;21021;-58
2022/12/10 05:32:52;;;;;;;28.10;14.13;;;9.20;95.50;;;;;;1934305;74;21029;-58
2022/12/10 05:35:22;;;;;;;21.25;12.50;;;9.30;95.60;;;;;;1894151;76;21467;-58
2022/12/10 05:37:51;;;;;;;26.15;13.62;;;9.30;95.70;;;;;;1934427;74;21068;-58
2022/12/10 05:40:20;;;;;;;19.57;12.37;;;9.40;95.80;;;;;;1894090;75;21171;-58
2022/12/10 05:42:50;;;;;;;27.10;13.83;;;9.50;95.80;;;;;;1934458;74;21017;-58
2022/12/10 05:45:19;;;;;;;17.55;10.28;;;9.50;95.80;;;;;;1894060;76;21025;-58
2022/12/10 05:47:48;;;;;;;34.53;14.83;;;9.60;95.70;;;;;;1934609;74;20986;-58
2022/12/10 05:50:17;;;;;;;24.47;14.85;;;9.60;95.70;;;;;;1894259;76;21021;-58
2022/12/10 05:52:46;;;;;;;25.90;11.43;;;9.70;95.60;;;;;;1934453;74;21021;-58
2022/12/10 05:55:16;;;;;;;21.52;12.75;;;9.80;95.60;;;;;;1894042;76;21056;-58
2022/12/10 05:57:45;;;;;;;25.48;14.55;;;9.80;95.60;;;;;;1934408;74;21010;-58
2022/12/10 06:00:15;;;;;;;23.50;12.45;;;9.90;95.60;;;;;;1894090;76;21111;-57
2022/12/10 06:02:44;;;;;;;24.12;12.73;;;10.00;95.60;;;;;;1934432;74;21013;-58
2022/12/10 06:05:13;;;;;;;21.93;11.60;;;10.00;95.50;;;;;;1894146;76;21037;-57
2022/12/10 06:07:43;;;;;;;22.40;12.00;;;10.00;95.50;;;;;;1934429;74;21025;-58
2022/12/10 06:10:12;;;;;;;18.73;11.12;;;10.10;95.50;;;;;;1894119;76;21032;-57
2022/12/10 06:12:42;;;;;;;17.55;10.40;;;10.20;95.50;;;;;;1934517;74;21017;-58
2022/12/10 06:15:12;;;;;;;18.02;10.70;;;10.30;95.50;;;;;;1883914;75;21089;-58
2022/12/10 06:17:41;;;;;;;18.17;11.33;;;10.30;95.40;;;;;;1924604;74;21053;-58
2022/12/10 06:20:11;;;;;;;34.50;17.57;;;10.40;95.40;;;;;;1881610;76;21021;-58
2022/12/10 06:22:40;;;;;;;64.27;22.55;;;10.40;95.40;;;;;;1924576;74;20982;-58
2022/12/10 06:25:10;;;;;;;19.80;10.48;;;10.50;95.40;;;;;;1881737;76;21107;-58
2022/12/10 06:27:39;;;;;;;29.37;12.45;;;10.60;95.30;;;;;;1924587;74;21002;-58
2022/12/10 06:30:09;;;;;;;28.47;12.78;;;10.60;95.60;;;;;;1881569;76;20994;-58
2022/12/10 06:32:39;;;;;;;18.92;10.32;;;10.70;95.30;;;;;;1924724;74;21010;-58
2022/12/10 06:35:08;;;;;;;18.42;10.72;;;10.70;95.30;;;;;;1881562;76;21087;-57
2022/12/10 06:37:38;;;;;;;14.63;9.70;;;10.80;95.30;;;;;;1924464;74;21042;-58
2022/12/10 06:40:08;;;;;;;19.32;10.45;;;10.80;95.20;;;;;;1885165;76;21095;-58
2022/12/10 06:42:37;;;;;;;21.05;11.85;;;10.90;95.10;;;;;;1924486;74;21010;-57
2022/12/10 06:45:07;;;;;;;23.20;11.65;;;11.00;95.10;;;;;;1881593;76;21045;-58
2022/12/10 06:47:36;;;;;;;19.48;11.35;;;11.10;95.00;;;;;;1924459;74;21061;-57
2022/12/10 06:50:06;;;;;;;20.50;10.80;;;11.20;94.60;;;;;;1881588;76;21025;-57
2022/12/10 06:52:35;;;;;;;21.90;11.75;;;11.20;94.70;;;;;;1924679;74;21077;-58
2022/12/10 06:55:05;;;;;;;24.55;13.15;;;11.30;94.70;;;;;;1881383;76;21079;-58
2022/12/10 06:57:34;;;;;;;19.92;10.85;;;11.40;94.60;;;;;;1924421;74;21134;-58
2022/12/10 07:00:04;;;;;;;17.62;9.73;;;11.40;94.60;;;;;;1881416;76;21018;-58
2022/12/10 07:02:34;;;;;;;15.50;10.45;;;11.50;94.30;;;;;;1881392;76;21037;-58
2022/12/10 07:05:03;;;;;;;16.87;9.30;;;11.50;93.70;;;;;;1924529;74;21006;-58
2022/12/10 07:07:33;;;;;;;13.20;8.83;;;11.60;94.10;;;;;;1885178;76;21029;-58
2022/12/10 07:10:02;;;;;;;12.90;8.35;;;11.70;93.80;;;;;;1885136;76;21117;-57
2022/12/10 07:12:31;;;;;;;11.97;8.85;;;11.80;93.50;;;;;;1885113;76;21084;-58
2022/12/10 07:15:00;;;;;;;17.10;9.25;;;11.80;93.60;;;;;;1885128;75;21070;-58
2022/12/10 07:17:30;;;;;;;15.72;10.28;;;11.90;93.70;;;;;;1885160;76;21053;-58
2022/12/10 07:19:59;;;;;;;19.32;12.40;;;12.00;93.60;;;;;;1924466;74;21045;-58
2022/12/10 07:22:28;;;;;;;20.97;12.33;;;12.00;93.30;;;;;;1881497;76;21087;-57
2022/12/10 07:24:58;;;;;;;15.58;11.00;;;12.10;93.40;;;;;;1924438;74;21029;-58
2022/12/10 07:27:28;;;;;;;16.67;9.38;;;12.20;93.20;;;;;;1881427;76;21042;-58
2022/12/10 07:29:56;;;;;;;12.65;8.73;;;12.30;93.10;;;;;;1881501;76;21045;-58
2022/12/10 07:32:27;;;;;;;14.10;9.13;;;12.30;93.00;;;;;;1889701;76;21100;-58
2022/12/10 07:34:56;;;;;;;11.93;7.15;;;12.30;92.40;;;;;;1885154;76;21006;-58
2022/12/10 07:37:26;;;;;;;16.27;8.43;;;12.40;91.90;;;;;;1885230;76;21037;-58
2022/12/10 07:39:56;;;;;;;11.05;7.42;;;12.50;91.60;;;;;;1885135;76;21082;-58
2022/12/10 07:42:24;;;;;;;9.50;6.50;;;12.60;91.70;;;;;;1885251;76;21174;-58
2022/12/10 07:44:54;;;;;;;11.35;7.08;;;12.70;91.90;;;;;;1885161;76;20997;-59
2022/12/10 07:47:23;;;;;;;12.68;8.15;;;12.70;91.90;;;;;;1885297;76;21050;-59
2022/12/10 07:49:52;;;;;;;11.73;8.25;;;12.70;91.20;;;;;;1885201;76;21099;-59
2022/12/10 07:52:21;;;;;;;10.63;7.53;;;12.80;91.40;;;;;;1885101;76;21776;-58
2022/12/10 07:54:50;;;;;;;10.30;6.87;;;12.80;91.30;;;;;;1885046;76;21034;-58
2022/12/10 07:57:20;;;;;;;11.20;7.37;;;12.90;90.80;;;;;;1885068;76;21050;-59
2022/12/10 07:59:49;;;;;;;10.80;6.72;;;12.90;90.90;;;;;;1885118;76;21021;-58
2022/12/10 08:02:18;;;;;;;13.72;7.35;;;12.90;90.80;;;;;;1885065;76;21033;-58
2022/12/10 08:04:48;;;;;;;15.08;8.55;;;13.00;91.00;;;;;;1885068;76;21093;-59
2022/12/10 08:07:17;;;;;;;8.38;6.12;;;13.00;90.80;;;;;;1885044;76;21045;-59
2022/12/10 08:09:46;;;;;;;10.68;6.80;;;13.10;90.00;;;;;;1885014;76;21041;-58
2022/12/10 08:12:15;;;;;;;9.28;6.22;;;13.10;90.10;;;;;;1885046;76;21041;-58
2022/12/10 08:14:44;;;;;;;9.60;7.03;;;13.20;90.20;;;;;;1885043;75;21018;-59
2022/12/10 08:17:13;;;;;;;11.10;6.80;;;13.20;89.00;;;;;;1884945;76;21496;-59
2022/12/10 08:19:43;;;;;;;11.45;7.33;;;13.30;90.10;;;;;;1885026;76;21029;-59
2022/12/10 08:22:12;;;;;;;9.93;6.03;;;13.30;89.40;;;;;;1885068;76;21409;-59
2022/12/10 08:24:41;;;;;;;21.62;6.85;;;13.40;88.40;;;;;;1885094;76;21084;-59
2022/12/10 08:27:10;;;;;;;7.90;5.65;;;13.40;87.50;;;;;;1885066;76;21111;-59
2022/12/10 08:29:39;;;;;;;9.03;6.15;;;13.50;88.50;;;;;;1885130;76;21453;-59
2022/12/10 08:32:08;;;;;;;9.55;6.33;;;13.50;87.20;;;;;;1885054;76;21037;-58
2022/12/10 08:34:38;;;;;;;11.68;6.08;;;13.50;86.30;;;;;;1885036;76;20990;-58
2022/12/10 08:37:10;;;;;;;9.68;6.53;;;13.60;86.20;;;;;;1885073;76;21115;-59
2022/12/10 08:39:40;;;;;;;14.43;7.87;;;13.60;86.20;;;;;;1885210;76;21075;-59
2022/12/10 08:42:09;;;;;;;13.70;7.53;;;13.70;86.60;;;;;;1885159;76;21456;-59
2022/12/10 08:44:39;;;;;;;10.10;6.47;;;13.70;86.60;;;;;;1885047;76;21037;-59
2022/12/10 08:47:08;;;;;;;8.68;6.25;;;13.70;86.50;;;;;;1885181;76;21087;-59
2022/12/10 08:49:38;;;;;;;11.03;6.47;;;13.80;86.10;;;;;;1885092;76;21095;-59
2022/12/10 08:52:07;;;;;;;12.90;7.33;;;13.80;85.70;;;;;;1885067;76;21033;-59
2022/12/10 08:54:36;;;;;;;10.15;6.60;;;13.80;86.10;;;;;;1885063;76;21087;-59
2022/12/10 08:57:05;;;;;;;7.87;5.47;;;13.90;85.50;;;;;;1885171;76;21123;-59
2022/12/10 08:59:35;;;;;;;12.25;7.17;;;13.90;85.30;;;;;;1885096;76;21112;-59
2022/12/10 09:02:04;;;;;;;9.23;5.45;;;13.90;85.50;;;;;;1885090;76;21042;-59
2022/12/10 09:04:33;;;;;;;8.40;6.15;;;14.00;84.60;;;;;;1885098;76;21079;-59
2022/12/10 09:07:03;;;;;;;9.78;6.70;;;14.00;83.80;;;;;;1885063;76;21103;-58
2022/12/10 09:09:33;;;;;;;12.75;7.15;;;14.00;84.60;;;;;;1885206;76;21092;-59
2022/12/10 09:12:03;;;;;;;13.05;6.70;;;14.00;83.40;;;;;;1884773;76;21033;-59
2022/12/10 09:14:32;;;;;;;11.08;7.37;;;14.10;84.10;;;;;;1885004;76;21119;-59
2022/12/10 09:17:04;;;;;;;11.48;7.72;;;14.10;84.10;;;;;;1896388;75;21028;-58
2022/12/10 09:19:33;;;;;;;12.10;7.45;;;14.10;84.10;;;;;;1900178;75;21029;-58
2022/12/10 09:22:02;;;;;;;12.35;7.65;;;14.10;84.40;;;;;;1900784;75;21064;-58
2022/12/10 09:24:31;;;;;;;11.93;7.15;;;14.10;84.00;;;;;;1900841;75;21142;-58
2022/12/10 09:27:01;;;;;;;11.12;6.90;;;14.10;82.30;;;;;;1900891;75;21040;-58
2022/12/10 09:29:31;;;;;;;13.53;8.23;;;14.10;83.10;;;;;;1900857;75;21033;-59
2022/12/10 09:32:00;;;;;;;17.20;7.50;;;14.10;82.30;;;;;;1900810;75;21013;-59
2022/12/10 09:34:29;;;;;;;13.98;8.45;;;14.10;82.30;;;;;;1900847;75;21495;-59
2022/12/10 09:36:58;;;;;;;12.37;8.08;;;14.10;82.10;;;;;;1900834;75;21011;-59
2022/12/10 09:39:27;;;;;;;10.25;7.17;;;14.10;81.60;;;;;;1900927;75;21017;-59
2022/12/10 09:42:08;;;;;;;15.15;8.78;;;14.20;81.80;;;;;;1900886;75;21075;-59
2022/12/10 09:44:43;;;;;;;18.37;8.35;;;14.20;81.30;;;;;;1899999;75;21048;-59
2022/12/10 09:47:13;;;;;;;11.48;7.65;;;14.20;81.00;;;;;;1900391;75;21071;-59
2022/12/10 09:50:00;;;;;;;12.25;7.83;;;14.20;81.30;;;;;;1900892;75;21029;-59
2022/12/10 09:52:32;;;;;;;14.55;8.23;;;14.30;80.40;;;;;;1900899;75;21049;-59
2022/12/10 09:55:04;;;;;;;14.95;8.53;;;14.30;81.50;;;;;;1900692;75;21061;-59
2022/12/10 09:57:39;;;;;;;19.15;8.83;;;14.30;81.60;;;;;;1900842;75;21123;-59
2022/12/10 10:00:26;;;;;;;;;;;14.30;81.40;;;;;;1902859;75;21069;-59
2022/12/10 10:02:55;;;;;;;;;;;14.20;79.60;;;;;;1903873;75;20134;-59
2022/12/10 10:05:30;;;;;;;12.05;7.35;;;14.20;76.70;;;;;;1901003;75;20112;-59
2022/12/10 10:08:02;;;;;;;12.28;6.78;;;14.20;81.40;;;;;;1901024;75;21033;-59
2022/12/10 10:10:40;;;;;;;9.90;7.12;;;14.20;80.10;;;;;;1901127;75;21049;-59
2022/12/10 10:13:11;;;;;;;12.50;7.65;;;14.30;79.60;;;;;;1900978;75;21037;-59
2022/12/10 10:15:42;;;;;;;14.40;7.92;;;14.30;80.40;;;;;;1900987;75;21085;-58
2022/12/10 10:18:20;;;;;;;10.32;7.62;;;14.30;79.70;;;;;;1886422;75;21057;-58
2022/12/10 10:20:50;;;;;;;19.50;9.68;;;14.30;79.80;;;;;;1885483;76;21071;-58
2022/12/10 10:23:20;;;;;;;13.95;9.38;;;14.30;79.70;;;;;;1886086;76;21079;-59
2022/12/10 10:25:49;;;;;;;25.02;12.80;;;14.30;80.30;;;;;;1886009;76;21017;-58
2022/12/10 10:28:21;;;;;;;10.58;8.38;;;14.30;79.80;;;;;;1876243;76;21085;-59
2022/12/10 10:30:53;;;;;;;14.80;9.08;;;14.30;79.50;;;;;;1884645;76;21473;-58
2022/12/10 10:33:22;;;;;;;15.28;8.28;;;14.20;80.40;;;;;;1886039;76;21073;-59
2022/12/10 10:35:57;;;;;;;11.43;7.75;;;14.30;79.70;;;;;;1886092;76;21489;-59
2022/12/10 10:38:31;;;;;;;14.55;7.95;;;14.40;79.10;;;;;;1886079;76;21593;-59
2022/12/10 10:41:03;;;;;;;13.90;7.40;;;14.40;79.50;;;;;;1886081;76;21087;-58
2022/12/10 10:43:47;;;;;;;12.65;7.95;;;14.40;79.50;;;;;;1886074;76;21555;-58
2022/12/10 10:46:24;;;;;;;11.63;7.50;;;14.40;79.40;;;;;;1885939;76;21029;-58
2022/12/10 10:48:54;;;;;;;10.60;6.78;;;14.50;79.00;;;;;;1885994;76;21081;-59
2022/12/10 10:51:23;;;;;;;9.25;6.65;;;14.50;79.00;;;;;;1882427;76;21085;-58
2022/12/10 10:53:54;;;;;;;11.33;7.87;;;14.50;79.20;;;;;;1886023;76;21115;-58
2022/12/10 10:56:29;;;;;;;20.10;9.08;;;14.50;79.80;;;;;;1885956;76;21034;-58
2022/12/10 10:59:04;;;;;;;14.07;8.30;;;14.50;79.30;;;;;;1884623;76;21115;-58
2022/12/10 11:01:54;;;;;;;13.05;8.10;;;14.50;79.50;;;;;;1886076;76;21085;-59
2022/12/10 11:04:26;;;;;;;12.80;7.35;;;14.50;79.70;;;;;;1886174;76;21049;-59
2022/12/10 11:06:57;;;;;;;11.28;7.37;;;14.60;79.50;;;;;;1885944;76;21053;-59
2022/12/10 11:09:28;;;;;;;14.10;8.30;;;14.60;78.70;;;;;;1886161;76;21017;-59
2022/12/10 11:12:03;;;;;;;10.45;7.90;;;14.60;79.40;;;;;;1886144;76;21440;-58
2022/12/10 11:14:36;;;;;;;;;;;14.60;78.90;;;;;;1888610;76;21128;-59
2022/12/10 11:17:14;;;;;;;9.03;6.40;;;14.60;79.70;;;;;;1885756;75;20105;-59
2022/12/10 11:20:05;;;;;;;12.35;6.47;;;14.60;79.30;;;;;;1886084;76;21596;-58
2022/12/10 11:22:35;;;;;;;15.25;7.90;;;14.60;79.10;;;;;;1886098;76;21045;-59
2022/12/10 11:25:06;;;;;;;8.75;6.53;;;14.60;78.90;;;;;;1886043;76;21099;-59
2022/12/10 11:28:01;;;;;;;13.55;7.83;;;14.70;79.00;;;;;;1886014;76;21021;-59
2022/12/10 11:30:33;;;;;;;13.18;8.15;;;14.70;79.10;;;;;;1868517;76;21111;-59
2022/12/10 11:33:18;;;;;;;12.37;8.03;;;14.70;78.60;;;;;;1886013;76;21591;-58
2022/12/10 11:36:08;;;;;;;10.10;7.08;;;14.70;78.70;;;;;;1885217;76;21471;-59
2022/12/10 11:38:48;;;;;;;11.65;6.92;;;14.70;78.60;;;;;;1885120;76;21487;-58
2022/12/10 11:41:26;;;;;;;18.55;8.55;;;14.70;78.50;;;;;;1886026;76;21123;-58
2022/12/10 11:44:03;;;;;;;13.43;7.92;;;14.70;78.70;;;;;;1886077;76;21069;-58
2022/12/10 11:46:52;;;;;;;12.40;8.08;;;14.60;77.50;;;;;;1886036;76;21021;-58
2022/12/10 11:49:27;;;;;;;15.08;7.50;;;14.60;77.30;;;;;;1886052;76;21025;-59
2022/12/10 11:52:05;;;;;;;13.50;7.58;;;14.70;76.80;;;;;;1885955;76;21119;-59
2022/12/10 11:54:37;;;;;;;15.08;8.00;;;14.70;77.20;;;;;;1885374;76;21053;-58
2022/12/10 11:57:15;;;;;;;17.35;8.03;;;14.70;76.70;;;;;;1885203;76;21009;-58
2022/12/10 12:00:02;;;;;;;14.33;7.45;;;14.70;77.10;;;;;;1885312;76;21154;-59
2022/12/10 12:02:47;;;;;;;10.38;7.33;;;14.70;76.70;;;;;;1885832;76;21041;-58
2022/12/10 12:05:45;;;;;;;13.10;7.17;;;14.70;76.50;;;;;;1886171;76;21057;-59
2022/12/10 12:08:36;;;;;;;12.23;7.50;;;14.70;76.20;;;;;;1886107;76;21049;-59
2022/12/10 12:11:11;;;;;;;12.78;7.67;;;14.70;76.60;;;;;;1885534;75;21010;-59
2022/12/10 12:14:10;;;;;;;9.20;7.10;;;14.70;75.50;;;;;;1885427;76;21053;-59
2022/12/10 12:16:43;;;;;;;9.15;6.22;;;14.60;76.10;;;;;;1885531;76;21504;-58
2022/12/10 12:19:24;;;;;;;15.23;7.67;;;14.60;75.60;;;;;;1900104;75;21064;-59
2022/12/10 12:21:53;;;;;;;11.05;7.40;;;14.50;75.70;;;;;;1898842;75;21025;-59
2022/12/10 12:24:27;;;;;;;19.15;7.90;;;14.50;76.10;;;;;;1900826;75;21020;-58
2022/12/10 12:27:05;;;;;;;13.22;7.62;;;14.50;76.40;;;;;;1900014;75;21001;-58
2022/12/10 12:29:46;;;;;;;19.25;7.40;;;14.40;76.00;;;;;;1899048;75;21048;-58
2022/12/10 12:32:23;;;;;;;12.10;8.65;;;14.40;76.10;;;;;;1901000;75;21538;-59
2022/12/10 12:34:55;;;;;;;16.17;9.18;;;14.30;76.10;;;;;;1897406;75;21479;-59
2022/12/10 12:37:27;;;;;;;12.88;8.63;;;14.30;76.40;;;;;;1900923;75;21033;-59
2022/12/10 12:39:59;;;;;;;17.00;9.53;;;14.20;76.60;;;;;;1900955;75;21106;-58
2022/12/10 12:42:49;;;;;;;23.83;10.90;;;14.10;76.70;;;;;;1901219;74;21052;-59
2022/12/10 12:45:38;;;;;;;16.70;9.53;;;14.10;76.70;;;;;;1900542;75;21065;-59
2022/12/10 12:48:31;;;;;;;18.05;8.20;;;14.00;76.70;;;;;;1934448;74;21456;-59
2022/12/10 12:51:09;;;;;;;14.93;8.10;;;14.00;76.90;;;;;;1934097;74;21095;-59
2022/12/10 12:53:39;;;;;;;13.40;8.38;;;13.90;77.10;;;;;;1932551;74;21045;-59
2022/12/10 12:56:26;;;;;;;16.87;9.85;;;13.90;76.90;;;;;;1934398;74;21091;-59
2022/12/10 12:59:13;;;;;;;27.67;13.50;;;13.80;77.10;;;;;;1934393;74;21037;-59
2022/12/10 13:01:51;;;;;;;20.37;13.22;;;13.80;77.30;;;;;;1929986;74;21098;-58
2022/12/10 13:04:21;;;;;;;16.07;10.20;;;13.80;77.20;;;;;;1934426;74;21013;-58
2022/12/10 13:07:12;;;;;;;22.20;11.68;;;13.70;77.20;;;;;;1934407;74;21096;-59
2022/12/10 13:09:53;;;;;;;20.48;11.18;;;13.70;76.90;;;;;;1930725;74;21036;-59
2022/12/10 13:12:40;;;;;;;23.32;11.78;;;13.70;76.90;;;;;;1934417;74;21103;-59
2022/12/10 13:15:34;;;;;;;16.62;11.10;;;13.60;76.20;;;;;;1934354;74;21073;-59
2022/12/10 13:18:20;;;;;;;16.32;9.20;;;13.60;76.40;;;;;;1926354;74;21162;-58